Weather at Palm Beach Community College Heliport

Public forecast

Using degrees Fahrenheit for public forecast. Weather courtesy of forecast.io.

Closest aviation weather report (METAR) to Palm Beach Community College Heliport

Closest report is Palm Beach County Park Airport, 1.1 nm (2.0 km) S.

2024/05/26 20:15 (retrieved 16 minutes ago)

KLNA 262015Z AUTO 13009KT 32/23 RMK AO2 T03190230

Closest aviation forecast (TAF) to Palm Beach Community College Heliport

Closest forecast is Palm Beach International Airport, 4.4 nm (8.1 km) N.

2024/05/26 19:09 Ammendment (retrieved 1 hour ago)

TAF AMD KPBI 261901Z 2619/2718 13011KT P6SM VCSH SCT030 SCT050 FM270000 16007KT P6SM FEW035 SCT250 FM270300 VRB05KT P6SM FEW035 FEW250 FM271600 15010KT P6SM FEW030 SCT050